Hovedside
METAR-TAF:

METAR-TAF

Lufthavner :

Västerås lufthavn

Västerås, Sverige

breddegrad: 59-35N, lengdegrad: 016-38E, høyde over havet: 6 m

Gjeldene værobservasjon

Denne rapporten ble laget for 45 minutter siden, klokken 16:50 UTC
Vind 6 kt fra Sør, skiftende mellom Sørøst og Sør-sørvest
Temperatur 25°C
Luftfuktighet 41%
Trykk 1018 hPa
Sikt 10 km eller mer

METAR: ESOW 241650Z AUTO 18006KT 140V210 9999 NCD 25/11 Q1018

Tid: 19:35 (17:35 UTC)

Varsel

Denne rapporten ble laget for 6 timer og 5 minutter siden, klokken 11:30 UTC
Varsel gyldig fra 24. klokken 12 UTC til 24. klokken 15 UTC
Vind 4 kt fra Nordøst
Sikt 10 km eller mer
Spredte skyer i en høyde av 4500 ft

TAF: ESOW 241130Z 2412/2415 04004KT 9999 SCT045

Værobservasjoner og værvarsel for over 4000 flyplasser (METAR- og TAF-rapporter).

Tilgjengelige stasjoner er representert av de røde og gule prikkene på kartet.

Hold musepekeren over prikken for å se navnet på stasjonen.

Klikk så for å se værobservasjoner og -varsler.

For å forandre kartet kan du klikke på den grønne knappen med svart kryss for å zoome inn, på den grønne knappen med strek for å zoome ut, eller på de grønne pilene for å se tilstøtende kart.


METAR-TAF: